Time;durP1;ratioP1;P1;durP2;ratioP2;P2;SDS_P1;SDS_P2;PMS_P1;PMS_P2;Temp;Humidity;BMP_temperature;BMP_pressure;BME280_temperature;BME280_humidity;BME280_pressure;Samples;Min_cycle;Max_cycle;Signal;HPM_P1;HPM_P2
2021/07/11 00:00:34;;;;;;;5.30;4.90;;;;;;;17.91;65.24;97278.88;1832727;77;25774;-82
2021/07/11 00:03:02;;;;;;;5.58;5.08;;;;;;;17.81;65.41;97279.34;1825123;77;25255;-82
2021/07/11 00:05:30;;;;;;;7.53;5.75;;;;;;;17.70;65.52;97279.80;1844661;76;26337;-82
2021/07/11 00:07:56;;;;;;;6.37;5.78;;;;;;;17.60;65.79;97290.61;1843988;77;25781;-83
2021/07/11 00:10:24;;;;;;;4.80;4.40;;;;;;;17.57;65.96;97284.30;1841900;77;27460;-83
2021/07/11 00:12:51;;;;;;;5.50;5.00;;;;;;;17.53;66.04;97277.16;1828900;76;25688;-83
2021/07/11 00:15:23;;;;;;;5.78;4.70;;;;;;;17.47;66.19;97274.11;1844626;77;25766;-82
2021/07/11 00:17:52;;;;;;;6.90;5.23;;;;;;;17.44;66.29;97277.34;1823002;76;25905;-83
2021/07/11 00:20:20;;;;;;;5.65;5.15;;;;;;;17.43;66.39;97278.42;1834156;77;25778;-82
2021/07/11 00:22:47;;;;;;;8.48;5.05;;;;;;;17.39;66.52;97273.19;1835058;75;27466;-83
2021/07/11 00:25:14;;;;;;;5.80;5.30;;;;;;;17.37;66.68;97279.47;1839504;76;25784;-83
2021/07/11 00:27:43;;;;;;;7.33;5.22;;;;;;;17.25;66.40;97289.17;1846893;77;25737;-82
2021/07/11 00:30:12;;;;;;;7.00;6.35;;;;;;;17.17;66.83;97274.61;1850097;75;25765;-82
2021/07/11 00:32:39;;;;;;;6.50;5.85;;;;;;;17.15;66.91;97273.20;1850821;75;25702;-82
2021/07/11 00:35:06;;;;;;;5.80;5.30;;;;;;;17.09;67.02;97278.34;1826958;77;27505;-83
2021/07/11 00:37:33;;;;;;;7.90;5.40;;;;;;;17.06;67.18;97274.75;1850528;77;25685;-82
2021/07/11 00:39:59;;;;;;;5.42;4.87;;;;;;;17.05;67.25;97273.10;1850072;75;26286;-82
2021/07/11 00:42:26;;;;;;;5.70;5.20;;;;;;;17.04;67.30;97275.55;1838485;77;25759;-82
2021/07/11 00:44:53;;;;;;;6.22;5.12;;;;;;;17.03;67.27;97272.53;1828614;75;25764;-82
2021/07/11 00:47:20;;;;;;;7.55;5.37;;;;;;;16.97;67.21;97271.66;1824599;77;28309;-82
2021/07/11 00:49:46;;;;;;;6.45;5.85;;;;;;;16.78;67.43;97271.18;1831944;77;25715;-82
2021/07/11 00:52:14;;;;;;;6.70;6.03;;;;;;;16.67;67.76;97274.83;1826327;77;25701;-82
2021/07/11 00:54:42;;;;;;;6.40;5.62;;;;;;;16.70;68.00;97278.95;1849674;75;25749;-82
2021/07/11 00:57:09;;;;;;;8.33;6.00;;;;;;;16.69;67.98;97271.31;1823240;77;25469;-82
2021/07/11 00:59:38;;;;;;;5.85;5.45;;;;;;;16.70;68.08;97272.97;1826902;75;27520;-82
2021/07/11 01:02:19;;;;;;;6.00;5.40;;;;;;;16.70;68.09;97277.59;1850004;77;25773;-82
2021/07/11 01:04:56;;;;;;;7.78;6.05;;;;;;;16.66;68.12;97280.02;1847300;75;25686;-80
2021/07/11 01:07:34;;;;;;;6.53;5.60;;;;;;;16.61;68.20;97275.83;1850009;77;25681;-81
2021/07/11 01:10:08;;;;;;;6.50;5.28;;;;;;;16.60;68.30;97275.53;1849627;76;25836;-81
2021/07/11 01:12:39;;;;;;;5.92;5.33;;;;;;;16.54;68.25;97273.84;1849795;75;27371;-82
2021/07/11 01:15:09;;;;;;;8.50;6.00;;;;;;;16.49;68.35;97272.39;1840530;76;25887;-82
2021/07/11 01:17:35;;;;;;;5.87;5.37;;;;;;;16.46;68.41;97266.08;1814443;75;25233;-82
2021/07/11 01:20:20;;;;;;;6.60;5.37;;;;;;;16.41;68.47;97269.58;1802492;77;26054;-82
2021/07/11 01:22:52;;;;;;;7.12;5.55;;;;;;;16.43;68.56;97266.58;1832728;77;26257;-83
2021/07/11 01:25:39;;;;;;;7.10;6.40;;;;;;;16.43;68.63;97263.85;1839356;77;27368;-83
2021/07/11 01:28:09;;;;;;;6.08;5.47;;;;;;;16.42;68.79;97265.75;1848865;76;25821;-83
2021/07/11 01:30:37;;;;;;;6.90;6.17;;;;;;;16.41;68.74;97267.39;1864903;75;25696;-83
2021/07/11 01:33:07;;;;;;;6.60;5.90;;;;;;;16.39;68.69;97264.09;1865248;76;25617;-81
2021/07/11 01:35:35;;;;;;;6.58;5.97;;;;;;;16.39;68.80;97266.81;1865316;75;25228;-82
2021/07/11 01:38:03;;;;;;;7.78;6.20;;;;;;;16.38;68.80;97263.80;1865130;75;28443;-83
2021/07/11 01:40:31;;;;;;;7.55;6.85;;;;;;;16.36;68.83;97270.03;1837806;75;26398;-83
2021/07/11 01:42:58;;;;;;;6.67;6.03;;;;;;;16.36;68.97;97261.86;1851119;76;26354;-83
2021/07/11 01:45:25;;;;;;;7.30;5.87;;;;;;;16.36;68.89;97263.22;1865143;76;25746;-84
2021/07/11 01:47:54;;;;;;;6.58;5.97;;;;;;;16.34;68.91;97268.09;1862977;76;25630;-83
2021/07/11 01:50:23;;;;;;;6.87;6.20;;;;;;;16.30;68.90;97264.24;1865258;76;27522;-83
2021/07/11 01:52:51;;;;;;;8.03;6.42;;;;;;;16.28;69.03;97259.58;1865193;76;25709;-83
2021/07/11 01:55:18;;;;;;;7.00;6.30;;;;;;;16.21;69.08;97255.12;1865243;75;25830;-84
2021/07/11 01:57:45;;;;;;;8.28;6.67;;;;;;;16.19;69.14;97254.54;1865212;76;25638;-84
2021/07/11 02:00:15;;;;;;;6.60;6.05;;;;;;;16.18;69.22;97254.25;1865175;76;25720;-84
2021/07/11 02:02:47;;;;;;;6.58;5.97;;;;;;;16.18;69.19;97254.81;1841586;76;27318;-84
2021/07/11 02:05:15;;;;;;;;;;;;;;;16.15;69.24;97259.39;1866977;76;25287;-84
2021/07/11 02:07:41;;;;;;;7.05;6.42;;;;;;;16.10;69.60;97263.39;1854875;76;25684;-83
2021/07/11 02:10:13;;;;;;;6.75;6.20;;;;;;;16.07;69.49;97264.70;1853138;76;25650;-84
2021/07/11 02:13:00;;;;;;;7.70;6.23;;;;;;;16.06;69.39;97258.97;1863897;76;25725;-83
2021/07/11 02:15:29;;;;;;;7.03;6.33;;;;;;;15.99;69.38;97256.15;1865037;76;28195;-82
2021/07/11 02:17:58;;;;;;;8.03;6.28;;;;;;;15.87;69.45;97265.77;1812202;77;26811;-84
2021/07/11 02:20:26;;;;;;;10.48;7.10;;;;;;;15.85;69.66;97252.94;1831078;77;25801;-83
2021/07/11 02:22:55;;;;;;;7.12;6.47;;;;;;;15.81;69.71;97247.72;1839361;77;25743;-83
2021/07/11 02:25:23;;;;;;;6.47;5.97;;;;;;;15.81;69.84;97246.36;1833351;77;25743;-84
2021/07/11 02:27:54;;;;;;;9.80;6.05;;;;;;;15.80;69.85;97242.81;1832675;77;27366;-83
2021/07/11 02:30:27;;;;;;;7.60;6.50;;;;;;;15.72;69.86;97243.21;1843482;77;25880;-84
2021/07/11 02:32:55;;;;;;;7.95;7.28;;;;;;;15.65;70.01;97243.92;1799253;79;25811;-83
2021/07/11 02:35:32;;;;;;;7.50;6.72;;;;;;;15.59;70.13;97243.53;1802859;78;25760;-83
2021/07/11 02:38:00;;;;;;;8.03;6.58;;;;;;;15.58;70.29;97247.33;1783054;78;25791;-83
2021/07/11 02:40:31;;;;;;;7.53;6.50;;;;;;;15.55;70.34;97256.54;1802770;78;27618;-82
2021/07/11 02:43:00;;;;;;;7.37;6.67;;;;;;;15.56;70.38;97248.67;1794289;79;25271;-81
2021/07/11 02:45:27;;;;;;;7.47;6.78;;;;;;;15.53;70.42;97258.11;1799239;78;25845;-82
2021/07/11 02:47:54;;;;;;;7.10;6.40;;;;;;;15.53;70.43;97254.56;1804617;78;26069;-84
2021/07/11 02:50:21;;;;;;;7.78;6.47;;;;;;;15.54;70.52;97256.22;1804425;78;25772;-82
2021/07/11 02:52:48;;;;;;;7.42;6.72;;;;;;;15.45;70.52;97255.80;1804491;79;28387;-82
2021/07/11 02:55:22;;;;;;;6.87;6.28;;;;;;;15.40;70.60;97264.69;1804409;78;26289;-82
2021/07/11 02:57:53;;;;;;;7.80;7.10;;;;;;;15.42;70.69;97268.00;1804500;79;26098;-82
2021/07/11 03:00:20;;;;;;;9.35;7.10;;;;;;;15.47;70.94;97265.34;1804487;78;26366;-81
2021/07/11 03:02:47;;;;;;;8.08;7.37;;;;;;;15.46;70.98;97262.87;1804403;78;25788;-82
2021/07/11 03:05:21;;;;;;;8.13;7.37;;;;;;;15.52;71.06;97260.54;1804411;78;28231;-84
2021/07/11 03:07:47;;;;;;;8.30;7.50;;;;;;;15.50;71.01;97253.98;1781873;78;25768;-84
2021/07/11 03:10:15;;;;;;;8.83;8.03;;;;;;;15.53;71.19;97255.92;1804402;78;25724;-82
2021/07/11 03:12:43;;;;;;;9.23;8.25;;;;;;;15.51;71.22;97253.45;1797645;78;25784;-84
2021/07/11 03:15:12;;;;;;;8.15;7.37;;;;;;;15.48;71.39;97254.75;1789803;79;26385;-81
2021/07/11 03:17:40;;;;;;;8.58;7.55;;;;;;;15.45;71.43;97258.53;1804590;78;27451;-82
2021/07/11 03:20:11;;;;;;;8.28;7.47;;;;;;;15.45;71.60;97262.07;1788986;78;25765;-81
2021/07/11 03:22:39;;;;;;;9.03;6.85;;;;;;;15.53;71.76;97257.28;1804309;78;25763;-82
2021/07/11 03:25:10;;;;;;;8.88;7.22;;;;;;;15.53;71.69;97257.28;1778560;78;25782;-82
2021/07/11 03:27:37;;;;;;;8.70;7.45;;;;;;;15.56;71.83;97262.27;1790643;79;25659;-82
2021/07/11 03:30:12;;;;;;;9.90;8.38;;;;;;;15.55;71.88;97268.25;1782269;79;27416;-82
2021/07/11 03:32:46;;;;;;;9.60;8.60;;;;;;;15.65;71.96;97266.23;1799709;79;25726;-82
2021/07/11 03:35:14;;;;;;;10.13;8.10;;;;;;;15.69;72.02;97256.51;1799941;79;25702;-82
2021/07/11 03:37:45;;;;;;;11.97;9.28;;;;;;;15.72;72.02;97264.16;1799913;79;25786;-84
2021/07/11 03:40:20;;;;;;;10.08;9.18;;;;;;;15.74;72.08;97267.45;1799840;79;25723;-83
2021/07/11 03:42:49;;;;;;;9.18;8.28;;;;;;;15.74;72.19;97263.38;1797999;78;27351;-81
2021/07/11 03:45:16;;;;;;;8.80;7.90;;;;;;;15.80;72.26;97258.32;1799446;79;25715;-82
2021/07/11 03:47:56;;;;;;;7.95;7.25;;;;;;;15.79;72.25;97258.03;1799933;79;25837;-81
2021/07/11 03:50:26;;;;;;;8.88;7.55;;;;;;;15.84;72.27;97258.09;1772970;78;26163;-83
2021/07/11 03:53:04;;;;;;;8.80;8.00;;;;;;;15.91;72.27;97264.74;1798702;79;25754;-83
2021/07/11 03:55:32;;;;;;;9.00;8.03;;;;;;;15.96;72.16;97264.27;1786855;79;28570;-81
2021/07/11 03:58:00;;;;;;;9.10;8.30;;;;;;;16.03;72.14;97264.11;1799790;79;25253;-83
2021/07/11 04:00:29;;;;;;;13.30;8.65;;;;;;;16.05;72.19;97261.44;1791738;79;25736;-83
2021/07/11 04:02:59;;;;;;;10.88;9.18;;;;;;;16.07;72.19;97252.45;1803584;78;25792;-82
2021/07/11 04:05:29;;;;;;;10.10;9.05;;;;;;;16.10;72.14;97252.50;1801093;78;25738;-83
2021/07/11 04:07:56;;;;;;;10.25;9.35;;;;;;;16.13;72.15;97248.75;1799727;79;27398;-84
2021/07/11 04:10:27;;;;;;;9.83;9.00;;;;;;;16.12;72.21;97251.18;1799863;79;25716;-84
2021/07/11 04:12:57;;;;;;;9.28;8.30;;;;;;;16.06;72.23;97243.20;1799530;79;25696;-82
2021/07/11 04:15:24;;;;;;;9.35;8.45;;;;;;;16.09;72.33;97248.95;1799884;79;25704;-81
2021/07/11 04:17:55;;;;;;;8.83;7.92;;;;;;;16.15;72.39;97252.59;1798706;79;25703;-81
2021/07/11 04:20:24;;;;;;;8.18;7.40;;;;;;;16.23;72.44;97257.59;1800178;78;27305;-82
2021/07/11 04:22:54;;;;;;;9.43;8.53;;;;;;;16.30;72.44;97261.52;1799949;79;26477;-82
2021/07/11 04:25:22;;;;;;;9.95;8.95;;;;;;;16.37;72.45;97261.61;1837468;77;25682;-82
2021/07/11 04:27:51;;;;;;;10.43;9.20;;;;;;;16.45;72.46;97264.42;1836663;77;25801;-82
2021/07/11 04:30:18;;;;;;;10.10;9.05;;;;;;;16.52;72.45;97261.00;1841420;77;25493;-82
2021/07/11 04:32:44;;;;;;;11.18;9.23;;;;;;;16.58;72.41;97262.16;1841123;77;27641;-81
2021/07/11 04:35:12;;;;;;;12.25;9.58;;;;;;;16.61;72.33;97259.47;1815366;77;25737;-83
2021/07/11 04:37:38;;;;;;;12.35;10.10;;;;;;;16.62;72.33;97263.02;1841069;77;25792;-83
2021/07/11 04:40:06;;;;;;;12.50;9.23;;;;;;;16.64;72.44;97263.63;1836120;77;25689;-82
2021/07/11 04:42:33;;;;;;;9.98;8.83;;;;;;;16.68;72.27;97254.67;1821554;77;25738;-83
2021/07/11 04:45:04;;;;;;;9.80;8.90;;;;;;;16.70;72.29;97255.25;1840395;77;28251;-83
2021/07/11 04:47:28;;;;;;;11.90;9.63;;;;;;;16.73;72.25;97245.22;1792803;77;25691;-83
2021/07/11 04:49:55;;;;;;;10.85;9.75;;;;;;;16.79;72.26;97255.08;1824010;77;25820;-82
2021/07/11 04:52:21;;;;;;;11.25;10.23;;;;;;;16.84;72.27;97252.43;1841137;77;26429;-83
2021/07/11 04:54:49;;;;;;;12.68;11.38;;;;;;;16.84;72.29;97248.34;1840989;77;25764;-83
2021/07/11 04:57:15;;;;;;;13.22;10.98;;;;;;;16.89;72.46;97244.33;1841043;77;28361;-83
2021/07/11 04:59:43;;;;;;;12.63;11.35;;;;;;;16.92;72.36;97244.33;1840860;77;25971;-83
2021/07/11 05:02:09;;;;;;;12.37;11.25;;;;;;;16.98;72.45;97244.69;1825134;77;25711;-83
2021/07/11 05:04:36;;;;;;;12.43;11.22;;;;;;;17.06;72.63;97245.58;1852029;77;25736;-83
2021/07/11 05:07:03;;;;;;;10.70;9.70;;;;;;;17.13;72.53;97238.03;1830666;77;25691;-83
2021/07/11 05:09:29;;;;;;;11.00;9.90;;;;;;;17.19;72.41;97232.08;1840592;77;27309;-83
2021/07/11 05:11:56;;;;;;;10.60;9.48;;;;;;;17.25;72.32;97238.70;1840727;77;25761;-84
2021/07/11 05:14:23;;;;;;;11.40;10.38;;;;;;;17.35;72.30;97240.70;1831212;77;25770;-83
2021/07/11 05:16:50;;;;;;;13.95;10.40;;;;;;;17.45;72.08;97237.23;1818074;77;26189;-84
2021/07/11 05:19:17;;;;;;;11.53;10.53;;;;;;;17.53;71.99;97228.03;1841034;77;25714;-84
2021/07/11 05:21:44;;;;;;;13.22;11.93;;;;;;;17.62;71.82;97233.31;1840813;77;27589;-84
2021/07/11 05:24:10;;;;;;;12.63;11.38;;;;;;;17.67;71.70;97228.99;1840964;77;26028;-84
2021/07/11 05:26:37;;;;;;;13.20;11.80;;;;;;;17.69;71.72;97229.56;1841129;77;25784;-83
2021/07/11 05:29:04;;;;;;;11.57;10.45;;;;;;;17.72;71.72;97227.69;1840796;76;25682;-84
2021/07/11 05:31:30;;;;;;;11.65;10.50;;;;;;;17.75;71.74;97232.05;1807762;77;25745;-83
2021/07/11 05:33:57;;;;;;;12.28;11.08;;;;;;;17.80;71.66;97225.83;1840990;77;27333;-83
2021/07/11 05:36:24;;;;;;;10.93;9.93;;;;;;;17.83;71.74;97228.04;1840987;77;25730;-84
2021/07/11 05:38:50;;;;;;;11.63;10.45;;;;;;;17.90;71.84;97223.98;1794526;77;25708;-83
2021/07/11 05:41:17;;;;;;;11.88;10.63;;;;;;;17.99;71.74;97227.08;1793819;77;26268;-83
2021/07/11 05:43:43;;;;;;;12.25;11.05;;;;;;;18.10;71.65;97230.15;1793738;77;25728;-84
2021/07/11 05:46:10;;;;;;;12.07;10.98;;;;;;;18.16;71.51;97226.89;1817450;77;27584;-83
2021/07/11 05:48:37;;;;;;;12.45;11.25;;;;;;;18.20;71.55;97235.67;1836123;77;26364;-84
2021/07/11 05:51:03;;;;;;;13.45;12.03;;;;;;;18.27;71.56;97234.06;1813257;77;26226;-83
2021/07/11 05:53:30;;;;;;;12.20;11.10;;;;;;;18.26;71.69;97229.13;1841044;77;26427;-84
2021/07/11 05:55:56;;;;;;;12.40;11.10;;;;;;;18.27;71.96;97232.14;1841101;77;26542;-84
2021/07/11 05:58:23;;;;;;;12.00;10.85;;;;;;;18.32;72.13;97232.19;1841110;77;27483;-84
2021/07/11 06:00:50;;;;;;;11.03;9.58;;;;;;;18.40;72.05;97228.66;1840954;77;25687;-83
2021/07/11 06:03:17;;;;;;;10.43;9.35;;;;;;;18.52;71.99;97230.64;1841023;77;26318;-83
2021/07/11 06:05:43;;;;;;;10.05;9.05;;;;;;;18.65;71.93;97227.45;1841044;77;26235;-84
2021/07/11 06:08:10;;;;;;;10.88;9.53;;;;;;;18.72;71.98;97218.44;1841055;77;25718;-84
2021/07/11 06:10:37;;;;;;;10.58;9.53;;;;;;;18.86;72.15;97216.86;1840953;77;27627;-85
2021/07/11 06:13:04;;;;;;;11.00;9.90;;;;;;;19.03;72.32;97217.47;1840788;77;25746;-85
2021/07/11 06:15:31;;;;;;;11.20;9.75;;;;;;;19.13;72.15;97219.94;1840793;77;25742;-84
2021/07/11 06:17:58;;;;;;;10.98;9.65;;;;;;;19.24;72.03;97216.95;1841020;77;25647;-84
2021/07/11 06:20:24;;;;;;;11.10;9.43;;;;;;;19.35;71.92;97217.79;1841148;77;25774;-84
2021/07/11 06:22:51;;;;;;;11.80;8.95;;;;;;;19.42;71.67;97210.15;1807618;77;27518;-85
2021/07/11 06:25:18;;;;;;;10.65;8.78;;;;;;;19.49;71.45;97213.46;1826242;77;25752;-84
2021/07/11 06:27:46;;;;;;;9.28;8.35;;;;;;;19.54;71.34;97212.66;1823273;77;25715;-85
2021/07/11 06:30:16;;;;;;;10.13;8.95;;;;;;;19.63;71.34;97206.35;1840784;76;26288;-84
2021/07/11 06:32:45;;;;;;;10.18;9.18;;;;;;;19.73;71.38;97204.98;1814412;77;25750;-86
2021/07/11 06:35:16;;;;;;;10.30;9.28;;;;;;;19.82;71.10;97198.94;1835606;77;27451;-84
2021/07/11 06:37:45;;;;;;;9.48;8.48;;;;;;;19.90;71.02;97199.77;1840808;77;25726;-84
2021/07/11 06:40:14;;;;;;;9.43;8.45;;;;;;;20.00;71.21;97195.09;1840897;77;25844;-84
2021/07/11 06:42:41;;;;;;;9.08;8.18;;;;;;;20.14;71.12;97192.61;1841035;77;25366;-84
2021/07/11 06:45:10;;;;;;;10.15;8.75;;;;;;;20.22;70.82;97195.31;1841014;77;25742;-84
2021/07/11 06:47:37;;;;;;;8.98;8.13;;;;;;;20.30;70.62;97187.88;1840861;77;27333;-85
2021/07/11 06:50:07;;;;;;;9.38;8.03;;;;;;;20.40;70.50;97184.62;1807597;77;25762;-83
2021/07/11 06:52:35;;;;;;;10.15;7.45;;;;;;;20.52;70.36;97176.08;1840926;77;26352;-85
2021/07/11 06:55:08;;;;;;;8.53;7.72;;;;;;;20.60;70.34;97176.85;1810445;77;26314;-84
2021/07/11 06:57:38;;;;;;;9.45;8.40;;;;;;;20.76;70.45;97178.98;1839227;77;26496;-84
2021/07/11 07:00:07;;;;;;;8.60;7.70;;;;;;;20.88;70.31;97176.73;1795936;79;27437;-84
2021/07/11 07:02:33;;;;;;;9.40;8.33;;;;;;;21.01;70.21;97177.45;1795837;78;25757;-84
2021/07/11 07:05:00;;;;;;;9.28;7.85;;;;;;;21.15;70.07;97175.72;1795935;78;25676;-83
2021/07/11 07:07:27;;;;;;;11.00;8.23;;;;;;;21.25;69.98;97168.57;1773757;78;25685;-84
2021/07/11 07:09:53;;;;;;;10.63;8.25;;;;;;;21.37;70.02;97166.28;1795982;78;25698;-87
2021/07/11 07:12:20;;;;;;;8.85;8.05;;;;;;;21.50;69.82;97171.09;1793525;78;28287;-88
2021/07/11 07:14:46;;;;;;;8.38;7.50;;;;;;;21.61;69.72;97170.48;1775733;79;25959;-92
2021/07/11 07:17:13;;;;;;;8.00;6.92;;;;;;;21.71;69.40;97171.77;1796065;79;25902;-93
2021/07/11 07:19:40;;;;;;;7.62;6.60;;;;;;;21.81;69.14;97167.00;1773605;79;25790;-91
2021/07/11 07:22:09;;;;;;;7.95;7.17;;;;;;;21.93;69.02;97176.23;1796013;78;25701;-93
2021/07/11 07:24:35;;;;;;;7.95;7.25;;;;;;;22.06;68.84;97174.77;1772792;78;28426;-87
2021/07/11 07:27:02;;;;;;;9.63;8.03;;;;;;;22.17;68.73;97172.17;1774458;79;25961;-87
2021/07/11 07:29:28;;;;;;;8.50;7.70;;;;;;;22.31;69.05;97170.38;1795647;78;25693;-86
2021/07/11 07:31:55;;;;;;;8.68;7.40;;;;;;;22.46;68.56;97172.92;1795894;78;25398;-91
2021/07/11 07:34:22;;;;;;;8.98;8.08;;;;;;;22.57;68.33;97177.22;1795901;78;25761;-83
2021/07/11 07:36:48;;;;;;;9.78;8.03;;;;;;;22.69;68.15;97177.34;1791495;78;27466;-83
2021/07/11 07:39:15;;;;;;;8.63;7.80;;;;;;;22.82;68.00;97177.45;1764519;78;25768;-87
2021/07/11 07:41:42;;;;;;;9.08;8.03;;;;;;;23.05;67.76;97171.66;1788492;78;25858;-88
2021/07/11 07:44:09;;;;;;;8.13;7.33;;;;;;;23.05;67.76;97171.66;1784378;79;25924;-91
2021/07/11 07:46:35;;;;;;;9.18;7.50;;;;;;;23.18;67.48;97172.30;1785629;78;25704;-84
2021/07/11 07:49:02;;;;;;;11.30;7.25;;;;;;;23.31;67.49;97168.77;1796064;78;27587;-85
2021/07/11 07:51:29;;;;;;;11.43;7.92;;;;;;;23.46;67.20;97166.90;1795973;78;25861;-86
2021/07/11 07:53:55;;;;;;;8.55;7.72;;;;;;;23.59;67.13;97159.28;1796081;78;25710;-87
2021/07/11 07:56:23;;;;;;;8.98;7.47;;;;;;;23.73;66.86;97149.13;1796053;79;25704;-84
2021/07/11 07:58:49;;;;;;;8.63;7.50;;;;;;;23.90;66.35;97149.95;1796179;78;25780;-88
2021/07/11 08:01:16;;;;;;;8.90;7.47;;;;;;;24.19;66.49;97149.11;1796205;78;27364;-87
2021/07/11 08:03:43;;;;;;;8.50;7.37;;;;;;;24.52;65.95;97146.28;1773315;78;26190;-86
2021/07/11 08:06:10;;;;;;;7.75;6.97;;;;;;;24.87;65.67;97147.49;1764641;79;25839;-85
2021/07/11 08:08:37;;;;;;;7.42;6.70;;;;;;;25.30;65.00;97145.15;1784587;79;26302;-85
2021/07/11 08:11:07;;;;;;;7.67;6.70;;;;;;;25.78;64.53;97149.52;1788496;78;25259;-87
2021/07/11 08:13:32;;;;;;;10.20;6.80;;;;;;;26.22;63.57;97146.42;1782157;79;27080;-89
2021/07/11 08:15:59;;;;;;;6.58;5.97;;;;;;;26.56;63.13;97142.46;1773814;78;25864;-85
2021/07/11 08:18:26;;;;;;;7.65;6.00;;;;;;;26.92;62.34;97146.38;1781227;79;25760;-83
2021/07/11 08:20:52;;;;;;;7.00;6.40;;;;;;;27.29;61.69;97145.56;1789396;78;26220;-86
2021/07/11 08:23:19;;;;;;;7.30;6.50;;;;;;;27.52;60.90;97154.77;1796147;78;25768;-86
2021/07/11 08:25:45;;;;;;;7.15;6.08;;;;;;;27.71;60.23;97157.78;1774263;78;28196;-86
2021/07/11 08:28:12;;;;;;;7.20;6.20;;;;;;;28.00;59.64;97150.98;1767716;79;25897;-87
2021/07/11 08:30:39;;;;;;;6.37;5.67;;;;;;;28.30;59.36;97143.55;1795863;78;25795;-84
2021/07/11 08:33:06;;;;;;;7.55;5.33;;;;;;;28.50;58.91;97145.59;1773999;78;25918;-88
2021/07/11 08:35:33;;;;;;;7.35;5.83;;;;;;;28.79;58.51;97146.80;1796125;78;25722;-86
2021/07/11 08:37:59;;;;;;;7.28;5.58;;;;;;;29.02;57.80;97145.34;1776192;78;27586;-89
2021/07/11 08:40:26;;;;;;;5.95;5.40;;;;;;;29.26;57.27;97153.02;1787000;78;25985;-88
2021/07/11 08:42:54;;;;;;;6.20;5.60;;;;;;;29.47;56.45;97148.30;1782022;79;25752;-88
2021/07/11 08:45:21;;;;;;;5.92;5.35;;;;;;;29.64;55.98;97146.77;1796004;78;26130;-88
2021/07/11 08:47:48;;;;;;;8.90;5.58;;;;;;;30.02;55.27;97149.95;1796176;79;25680;-88
2021/07/11 08:50:15;;;;;;;10.80;6.53;;;;;;;30.36;55.29;97150.95;1796026;79;27566;-86
2021/07/11 08:52:45;;;;;;;7.12;5.65;;;;;;;30.77;54.74;97142.20;1783803;78;26446;-88
2021/07/11 08:55:22;;;;;;;6.35;5.35;;;;;;;30.97;53.46;97146.82;1787352;78;25875;-90
2021/07/11 08:57:58;;;;;;;6.05;5.55;;;;;;;30.76;52.43;97150.32;1796035;78;25794;-89
2021/07/11 09:00:33;;;;;;;5.62;5.12;;;;;;;30.34;52.14;97157.44;1796069;79;25697;-86
2021/07/11 09:03:03;;;;;;;7.47;5.37;;;;;;;29.78;52.27;97148.45;1795060;78;27411;-93
2021/07/11 09:05:33;;;;;;;8.58;5.62;;;;;;;29.55;52.90;97154.38;1794388;78;25859;-87
2021/07/11 09:08:19;;;;;;;7.25;5.50;;;;;;;29.36;53.06;97155.39;1776581;79;25775;-88
2021/07/11 09:10:54;;;;;;;6.60;5.92;;;;;;;29.28;53.39;97156.28;1846430;77;25694;-87
2021/07/11 09:13:27;;;;;;;6.55;5.75;;;;;;;29.20;53.27;97151.03;1846982;77;25738;-88
2021/07/11 09:15:57;;;;;;;10.65;6.10;;;;;;;29.15;52.96;97155.96;1846531;77;27462;-90
2021/07/11 09:18:33;;;;;;;7.15;6.45;;;;;;;29.17;52.92;97147.53;1846891;77;25904;-87
2021/07/11 09:21:07;;;;;;;8.63;5.50;;;;;;;29.36;52.77;97149.25;1847126;77;25229;-88
2021/07/11 09:23:36;;;;;;;6.45;5.85;;;;;;;29.75;52.27;97147.16;1846965;77;26369;-85
2021/07/11 09:26:12;;;;;;;6.05;5.50;;;;;;;29.74;51.81;97152.48;1817796;77;25690;-87
2021/07/11 09:28:51;;;;;;;10.32;6.83;;;;;;;29.65;51.67;97144.22;1813385;77;27368;-86
2021/07/11 09:31:23;;;;;;;8.48;5.83;;;;;;;29.92;51.68;97140.63;1846867;77;25845;-85
2021/07/11 09:33:58;;;;;;;6.30;5.70;;;;;;;30.15;51.63;97136.30;1847725;77;25729;-85
2021/07/11 09:36:25;;;;;;;6.62;5.95;;;;;;;30.18;51.49;97133.41;1847533;77;26228;-87
2021/07/11 09:39:00;;;;;;;7.15;6.00;;;;;;;30.10;50.68;97135.12;1814215;77;25715;-90
2021/07/11 09:41:31;;;;;;;6.40;5.80;;;;;;;29.96;50.40;97129.05;1847577;77;27051;-86
2021/07/11 09:44:00;;;;;;;6.92;6.35;;;;;;;29.86;50.28;97137.80;1846726;77;25691;-85
2021/07/11 09:46:33;;;;;;;6.47;5.97;;;;;;;29.56;50.43;97144.89;1847573;77;25808;-84
2021/07/11 09:48:57;;;;;;;8.00;6.20;;;;;;;29.27;50.80;97143.53;1781670;78;25720;-87
2021/07/11 09:51:27;;;;;;;7.28;6.08;;;;;;;29.12;51.20;97144.94;1804530;79;25677;-92
2021/07/11 09:53:57;;;;;;;6.83;6.05;;;;;;;29.14;51.20;97143.22;1779161;78;27441;-85
2021/07/11 09:56:37;;;;;;;8.60;6.62;;;;;;;29.16;51.16;97145.09;1801995;78;25870;-83
2021/07/11 09:59:07;;;;;;;7.28;6.50;;;;;;;29.12;50.92;97145.52;1804573;78;25699;-85
2021/07/11 10:01:36;;;;;;;8.20;6.58;;;;;;;28.90;50.82;97151.63;1787608;78;27092;-84
2021/07/11 10:04:04;;;;;;;8.88;6.53;;;;;;;28.79;51.26;97155.94;1795126;78;25653;-84
2021/07/11 10:06:33;;;;;;;7.65;6.85;;;;;;;28.73;51.59;97156.45;1787600;79;27430;-83
2021/07/11 10:09:02;;;;;;;7.42;6.72;;;;;;;28.68;51.81;97158.83;1804358;78;25757;-84
2021/07/11 10:11:28;;;;;;;7.37;6.65;;;;;;;28.60;52.13;97156.34;1804548;79;25264;-85
2021/07/11 10:13:55;;;;;;;8.85;7.95;;;;;;;28.54;52.19;97154.07;1804518;78;25740;-85
2021/07/11 10:16:27;;;;;;;7.65;6.92;;;;;;;28.60;52.10;97148.02;1804295;78;25818;-84
2021/07/11 10:18:58;;;;;;;;;;;;;;;28.71;52.06;97150.41;1785816;79;27482;-86
2021/07/11 10:21:33;;;;;;;7.10;6.40;;;;;;;28.77;51.71;97144.89;1793523;79;26407;-84
2021/07/11 10:24:01;;;;;;;8.70;6.80;;;;;;;28.75;51.94;97142.44;1804594;78;25238;-85
2021/07/11 10:26:40;;;;;;;8.10;7.50;;;;;;;28.71;51.77;97147.63;1775927;78;25726;-86
2021/07/11 10:29:17;;;;;;;7.17;6.47;;;;;;;28.70;51.94;97145.42;1804302;78;25553;-85
2021/07/11 10:31:52;;;;;;;6.92;6.30;;;;;;;28.92;51.82;97141.56;1793677;78;27539;-85
2021/07/11 10:34:28;;;;;;;7.70;5.78;;;;;;;29.14;51.30;97137.08;1780239;78;26067;-86
2021/07/11 10:36:54;;;;;;;6.47;5.85;;;;;;;29.41;51.16;97139.94;1795701;79;25795;-86
2021/07/11 10:39:21;;;;;;;7.25;5.83;;;;;;;29.49;49.91;97141.82;1762294;80;25520;-85
2021/07/11 10:41:53;;;;;;;7.62;6.15;;;;;;;29.41;49.43;97145.50;1768899;79;25709;-85
2021/07/11 10:44:23;;;;;;;6.60;6.00;;;;;;;29.36;49.24;97144.27;1762375;80;27359;-85
2021/07/11 10:46:59;;;;;;;7.10;6.47;;;;;;;29.30;49.07;97137.30;1795220;79;26783;-83
2021/07/11 10:49:32;;;;;;;7.20;6.50;;;;;;;29.26;49.47;97130.78;1762335;80;25713;-84
2021/07/11 10:52:09;;;;;;;8.75;6.70;;;;;;;29.31;49.59;97125.03;1786915;79;25760;-85
2021/07/11 10:54:49;;;;;;;7.83;6.65;;;;;;;29.28;49.88;97122.92;1784796;78;25740;-86
2021/07/11 10:57:34;;;;;;;8.75;6.67;;;;;;;29.19;50.10;97123.00;1762078;79;27385;-83
2021/07/11 11:00:30;;;;;;;8.63;7.83;;;;;;;28.97;49.79;97126.11;1788745;78;25891;-83
2021/07/11 11:02:59;;;;;;;9.00;6.50;;;;;;;28.67;50.62;97132.20;1795870;79;25758;-89
2021/07/11 11:05:26;;;;;;;7.97;7.17;;;;;;;28.47;50.72;97120.47;1762492;80;25738;-83
2021/07/11 11:07:57;;;;;;;7.60;6.90;;;;;;;28.26;50.65;97118.99;1795797;79;25895;-82
2021/07/11 11:10:31;;;;;;;8.38;6.62;;;;;;;28.04;51.18;97122.80;1787934;79;28022;-83
2021/07/11 11:13:24;;;;;;;9.20;7.22;;;;;;;27.86;51.42;97125.39;1787954;80;26277;-85
2021/07/11 11:15:58;;;;;;;;;;;;;;;27.64;51.69;97145.00;1768301;80;25798;-89
2021/07/11 11:18:30;;;;;;;8.63;7.72;;;;;;;27.48;51.90;97152.39;1776348;80;25542;-84
2021/07/11 11:21:15;;;;;;;10.70;8.15;;;;;;;27.34;52.17;97158.66;1767733;80;26043;-83
2021/07/11 11:23:48;;;;;;;9.53;8.35;;;;;;;27.20;52.47;97169.08;1767549;80;27367;-84
2021/07/11 11:26:22;;;;;;;8.98;8.15;;;;;;;26.97;52.71;97181.43;1775859;80;25711;-83
2021/07/11 11:28:51;;;;;;;10.28;9.25;;;;;;;26.84;53.27;97179.82;1756330;80;25781;-83
2021/07/11 11:31:31;;;;;;;12.68;9.33;;;;;;;26.73;53.57;97190.95;1759856;80;26341;-92
2021/07/11 11:34:06;;;;;;;11.55;8.40;;;;;;;26.59;54.05;97194.95;1780949;80;25777;-82
2021/07/11 11:36:48;;;;;;;10.53;8.35;;;;;;;26.38;54.37;97211.31;1790244;78;27484;-84
2021/07/11 11:39:25;;;;;;;13.45;9.23;;;;;;;26.11;54.77;97213.08;1788169;78;25797;-83
2021/07/11 11:41:53;;;;;;;12.82;9.25;;;;;;;25.85;55.46;97217.62;1790099;78;25714;-85